Time;durP1;ratioP1;P1;durP2;ratioP2;P2;SDS_P1;SDS_P2;PMS_P1;PMS_P2;Temp;Humidity;BMP_temperature;BMP_pressure;BME280_temperature;BME280_humidity;BME280_pressure;Samples;Min_cycle;Max_cycle;Signal;HPM_P1;HPM_P2
2022/03/21 00:01:01;;;;;;;10.45;6.57;;;1.70;78.20;;;;;;7378043;19;20313;-68
2022/03/21 00:03:30;;;;;;;9.73;6.75;;;1.60;78.90;;;;;;7376689;19;20332;-70
2022/03/21 00:05:56;;;;;;;9.37;6.47;;;1.50;79.80;;;;;;7383687;19;20403;-69
2022/03/21 00:08:22;;;;;;;10.55;6.75;;;1.40;83.10;;;;;;7376748;19;20416;-68
2022/03/21 00:10:48;;;;;;;12.25;7.38;;;1.20;85.10;;;;;;7378312;19;20317;-68
2022/03/21 00:13:15;;;;;;;8.43;6.70;;;1.10;85.70;;;;;;7377092;19;20411;-68
2022/03/21 00:15:42;;;;;;;8.80;6.90;;;1.00;88.50;;;;;;7379792;19;20894;-68
2022/03/21 00:18:09;;;;;;;9.07;7.20;;;0.80;88.80;;;;;;7378788;19;21037;-68
2022/03/21 00:20:34;;;;;;;8.05;6.60;;;0.80;89.20;;;;;;7379407;19;20300;-69
2022/03/21 00:23:00;;;;;;;10.82;7.00;;;0.70;90.30;;;;;;7370702;19;20408;-68
2022/03/21 00:25:26;;;;;;;8.63;6.78;;;0.70;91.20;;;;;;7380933;19;20370;-69
2022/03/21 00:27:52;;;;;;;7.95;6.55;;;0.60;92.00;;;;;;7378742;19;20363;-68
2022/03/21 00:30:18;;;;;;;9.20;6.40;;;0.60;92.40;;;;;;7378808;19;20840;-68
2022/03/21 00:32:44;;;;;;;9.25;6.72;;;0.50;93.40;;;;;;7373645;19;20326;-68
2022/03/21 00:35:12;;;;;;;9.80;7.25;;;0.40;94.50;;;;;;7356915;19;20328;-68
2022/03/21 00:37:38;;;;;;;11.15;8.15;;;0.30;95.50;;;;;;7372971;19;20335;-68
2022/03/21 00:40:06;;;;;;;9.02;7.75;;;0.20;95.50;;;;;;7379409;19;20305;-68
2022/03/21 00:42:35;;;;;;;9.40;6.82;;;0.20;96.90;;;;;;7376477;19;20389;-68
2022/03/21 00:45:05;;;;;;;10.82;7.65;;;0.10;96.10;;;;;;7378002;19;20344;-68
2022/03/21 00:47:32;;;;;;;9.53;7.93;;;0.10;96.40;;;;;;7379692;19;20340;-68
2022/03/21 00:49:58;;;;;;;12.43;8.38;;;0.10;96.60;;;;;;7380746;19;20305;-67
2022/03/21 00:52:24;;;;;;;13.30;8.30;;;0.10;96.90;;;;;;7372571;19;20360;-67
2022/03/21 00:54:49;;;;;;;10.70;7.85;;;0.10;97.00;;;;;;7377460;19;20321;-68
2022/03/21 00:57:15;;;;;;;14.75;10.18;;;0.10;97.30;;;;;;7361851;19;20324;-67
2022/03/21 00:59:41;;;;;;;12.93;9.20;;;0.10;97.30;;;;;;7378090;19;20334;-68
2022/03/21 01:02:08;;;;;;;13.25;9.18;;;0.10;96.70;;;;;;7373989;19;20296;-68
2022/03/21 01:04:36;;;;;;;10.32;8.70;;;0.20;96.80;;;;;;7377599;19;20364;-68
2022/03/21 01:07:02;;;;;;;11.88;9.25;;;0.20;97.30;;;;;;7375594;19;20343;-68
2022/03/21 01:09:28;;;;;;;14.40;10.23;;;0.20;96.90;;;;;;7381399;19;20311;-67
2022/03/21 01:11:54;;;;;;;16.17;10.57;;;0.20;97.20;;;;;;7376931;19;20317;-67
2022/03/21 01:14:19;;;;;;;15.68;10.05;;;0.20;96.70;;;;;;7344293;19;20680;-68
2022/03/21 01:16:46;;;;;;;16.33;10.60;;;0.30;97.60;;;;;;7385169;19;20317;-67
2022/03/21 01:19:12;;;;;;;13.18;9.85;;;0.20;97.60;;;;;;7385983;19;20380;-67
2022/03/21 01:21:38;;;;;;;14.15;10.00;;;0.20;97.80;;;;;;7385976;19;20435;-68
2022/03/21 01:24:04;;;;;;;14.35;10.18;;;0.20;98.50;;;;;;7378309;19;20404;-67
2022/03/21 01:26:29;;;;;;;14.70;11.23;;;0.20;99.50;;;;;;7385668;19;20336;-67
2022/03/21 01:28:57;;;;;;;14.10;10.53;;;0.10;99.80;;;;;;7384494;19;21170;-67
2022/03/21 01:31:23;;;;;;;18.05;12.35;;;0.00;99.60;;;;;;7382016;19;20730;-68
2022/03/21 01:33:49;;;;;;;15.10;10.35;;;0.00;99.90;;;;;;7379497;19;20877;-68
2022/03/21 01:36:14;;;;;;;14.18;10.82;;;0.00;99.90;;;;;;7384221;19;20331;-68
2022/03/21 01:38:40;;;;;;;15.27;10.47;;;0.00;99.70;;;;;;7383199;19;20349;-67
2022/03/21 01:41:05;;;;;;;15.40;11.30;;;0.00;99.30;;;;;;7384974;19;21138;-68
2022/03/21 01:43:31;;;;;;;16.73;11.43;;;0.10;99.20;;;;;;7378275;19;20354;-67
2022/03/21 01:45:57;;;;;;;14.50;10.80;;;0.10;99.60;;;;;;7378892;19;20336;-68
2022/03/21 01:48:22;;;;;;;15.82;11.38;;;0.10;99.90;;;;;;7381300;19;20324;-68
2022/03/21 01:50:48;;;;;;;15.27;11.27;;;0.00;99.90;;;;;;7386784;19;20357;-67
2022/03/21 01:55:59;;;;;;;17.93;10.67;;;0.00;99.90;;;;;;7383530;19;20412;-68
2022/03/21 01:58:25;;;;;;;17.60;12.40;;;-0.10;99.90;;;;;;7381760;19;20412;-68
2022/03/21 02:00:51;;;;;;;18.15;11.35;;;-0.10;99.90;;;;;;7383940;19;20345;-68
2022/03/21 02:03:19;;;;;;;17.45;11.77;;;-0.10;99.90;;;;;;7379057;19;20337;-67
2022/03/21 02:05:47;;;;;;;18.23;11.27;;;-0.30;99.90;;;;;;7382513;19;20320;-68
2022/03/21 02:08:13;;;;;;;18.98;12.43;;;-0.30;99.90;;;;;;7383155;19;20940;-67
2022/03/21 02:10:42;;;;;;;17.05;12.00;;;-0.30;99.90;;;;;;7384295;19;20329;-67
2022/03/21 02:13:08;;;;;;;18.80;13.35;;;-0.30;99.90;;;;;;7377560;19;20411;-68
2022/03/21 02:15:34;;;;;;;17.33;12.27;;;-0.40;99.90;;;;;;7383237;19;21034;-67
2022/03/21 02:18:01;;;;;;;18.80;12.23;;;-0.50;99.90;;;;;;7382364;19;20316;-67
2022/03/21 02:20:31;;;;;;;16.20;11.23;;;-0.50;99.90;;;;;;7383136;19;20908;-67
2022/03/21 02:23:42;;;;;;;13.88;11.15;;;-0.50;99.90;;;;;;7274523;19;2004538;-67
2022/03/21 02:26:08;;;;;;;14.43;11.40;;;-0.50;99.90;;;;;;7176968;19;2004496;-67
2022/03/21 02:28:33;;;;;;;16.50;11.95;;;-0.50;99.90;;;;;;7379344;19;20359;-67
2022/03/21 02:31:00;;;;;;;18.30;12.23;;;-0.50;99.90;;;;;;7381745;19;20324;-67
2022/03/21 02:33:26;;;;;;;17.23;11.90;;;-0.50;99.90;;;;;;7379390;19;20340;-67
2022/03/21 02:35:51;;;;;;;16.50;12.02;;;-0.60;99.90;;;;;;7381499;19;20321;-67
2022/03/21 02:38:18;;;;;;;16.07;12.37;;;-0.60;99.90;;;;;;7379413;19;20349;-67
2022/03/21 02:40:43;;;;;;;16.30;12.10;;;-0.60;99.90;;;;;;7372745;19;20869;-67
2022/03/21 02:43:09;;;;;;;17.52;11.70;;;-0.60;99.90;;;;;;7378417;19;20312;-68
2022/03/21 02:45:35;;;;;;;16.27;11.53;;;-0.60;99.90;;;;;;7381495;19;20301;-68
2022/03/21 02:48:01;;;;;;;18.20;12.73;;;-0.60;99.90;;;;;;7377904;19;20323;-67
2022/03/21 02:51:01;;;;;;;19.67;12.75;;;-0.70;99.90;;;;;;7384298;19;20332;-67
2022/03/21 02:53:29;;;;;;;20.30;14.30;;;-0.70;99.90;;;;;;7278449;19;2004338;-68
2022/03/21 02:55:55;;;;;;;15.98;12.45;;;-0.80;99.90;;;;;;7378160;19;20430;-67
2022/03/21 02:58:21;;;;;;;15.67;11.40;;;-0.90;99.90;;;;;;7380951;19;20313;-68
2022/03/21 03:00:47;;;;;;;15.40;11.60;;;-0.90;99.90;;;;;;7380856;19;20796;-67
2022/03/21 03:03:12;;;;;;;17.98;11.93;;;-0.90;99.90;;;;;;7380031;19;20320;-67
2022/03/21 03:05:38;;;;;;;18.93;12.73;;;-0.90;99.90;;;;;;7381394;19;20683;-67
2022/03/21 03:08:04;;;;;;;16.77;12.17;;;-0.90;99.90;;;;;;7380547;19;20812;-67
2022/03/21 03:10:30;;;;;;;14.18;11.52;;;-0.90;99.90;;;;;;7383517;19;20347;-67
2022/03/21 03:12:56;;;;;;;15.83;11.70;;;-1.00;99.90;;;;;;7377385;19;20326;-67
2022/03/21 03:15:21;;;;;;;16.37;11.70;;;-1.20;99.90;;;;;;7357201;19;20719;-67
2022/03/21 03:17:47;;;;;;;16.52;12.30;;;-1.20;99.90;;;;;;7380535;19;20313;-67
2022/03/21 03:20:13;;;;;;;15.93;12.03;;;-1.20;99.90;;;;;;7382633;19;20336;-68
2022/03/21 03:22:39;;;;;;;17.33;11.80;;;-1.30;99.90;;;;;;7372689;19;20328;-67
2022/03/21 03:25:05;;;;;;;19.45;12.00;;;-1.30;99.90;;;;;;7381363;19;20299;-67
2022/03/21 03:27:31;;;;;;;15.20;11.32;;;-1.30;99.90;;;;;;7379382;19;20332;-67
2022/03/21 03:29:58;;;;;;;16.88;11.75;;;-1.30;99.90;;;;;;7379357;19;20313;-67
2022/03/21 03:32:24;;;;;;;16.30;11.68;;;-1.30;99.90;;;;;;7377196;19;20377;-67
2022/03/21 03:34:50;;;;;;;16.50;12.18;;;-1.40;99.90;;;;;;7381757;19;20341;-67
2022/03/21 03:37:16;;;;;;;15.80;11.87;;;-1.50;99.90;;;;;;7380418;19;20319;-67
2022/03/21 03:39:42;;;;;;;16.30;12.00;;;-1.50;99.90;;;;;;7384107;19;20320;-67
2022/03/21 03:42:08;;;;;;;16.50;12.20;;;-1.60;99.90;;;;;;7381023;19;20732;-67
2022/03/21 03:44:33;;;;;;;18.50;12.73;;;-1.70;99.90;;;;;;7376580;19;20344;-67
2022/03/21 03:47:02;;;;;;;16.73;10.93;;;-1.80;99.90;;;;;;7376740;19;20956;-67
2022/03/21 03:49:28;;;;;;;17.20;11.35;;;-1.80;99.90;;;;;;7379645;19;20341;-67
2022/03/21 03:51:53;;;;;;;19.52;12.00;;;-1.80;99.90;;;;;;7380812;19;20328;-67
2022/03/21 03:54:19;;;;;;;16.70;11.93;;;-1.80;99.90;;;;;;7379609;19;20853;-67
2022/03/21 03:56:45;;;;;;;18.13;11.60;;;-1.70;99.90;;;;;;7382454;19;20309;-67
2022/03/21 03:59:10;;;;;;;17.08;10.80;;;-1.80;99.90;;;;;;7378249;19;20301;-67
2022/03/21 04:01:38;;;;;;;16.40;11.07;;;-1.80;99.90;;;;;;7380476;19;20408;-67
2022/03/21 04:04:04;;;;;;;18.50;12.07;;;-1.90;99.90;;;;;;7375982;19;20399;-67
2022/03/21 04:06:30;;;;;;;17.17;12.25;;;-2.00;99.90;;;;;;7379365;19;20722;-67
2022/03/21 04:08:55;;;;;;;16.35;11.70;;;-2.00;99.90;;;;;;7378038;19;20463;-67
2022/03/21 04:11:21;;;;;;;14.63;11.00;;;-2.00;99.90;;;;;;7379143;19;20328;-67
2022/03/21 04:13:47;;;;;;;16.48;11.23;;;-2.00;99.90;;;;;;7374214;19;20419;-67
2022/03/21 04:16:14;;;;;;;15.57;10.98;;;-2.00;99.90;;;;;;7375567;19;20735;-66
2022/03/21 04:18:39;;;;;;;15.00;10.98;;;-2.00;99.90;;;;;;7362989;19;20431;-67
2022/03/21 04:21:05;;;;;;;17.67;11.20;;;-2.00;99.90;;;;;;7376199;19;20427;-67
2022/03/21 04:23:31;;;;;;;15.48;10.63;;;-2.00;99.90;;;;;;7374237;19;20357;-68
2022/03/21 04:28:25;;;;;;;13.70;10.10;;;-2.10;99.90;;;;;;7377416;19;20352;-67
2022/03/21 04:30:51;;;;;;;11.77;9.63;;;-2.10;99.90;;;;;;7373040;19;20936;-68
2022/03/21 04:33:17;;;;;;;13.87;10.63;;;-2.00;99.90;;;;;;7375031;19;20407;-67
2022/03/21 04:35:43;;;;;;;16.93;11.13;;;-2.10;99.90;;;;;;7375339;19;20349;-67
2022/03/21 04:38:16;;;;;;;13.23;10.25;;;-2.10;99.90;;;;;;7378366;19;20309;-68
2022/03/21 04:40:46;;;;;;;13.48;10.40;;;-2.10;99.90;;;;;;7379050;19;20304;-67
2022/03/21 04:43:13;;;;;;;14.80;10.70;;;-2.20;99.90;;;;;;7374776;19;20341;-67
2022/03/21 04:45:40;;;;;;;17.15;13.80;;;-2.40;99.90;;;;;;7358445;19;20328;-67
2022/03/21 04:48:06;;;;;;;13.80;11.43;;;-2.40;99.90;;;;;;7381185;19;20301;-68
2022/03/21 04:50:32;;;;;;;15.10;11.48;;;-2.40;99.90;;;;;;7385184;19;20684;-67
2022/03/21 04:52:58;;;;;;;15.35;11.00;;;-2.40;99.90;;;;;;7380745;19;20347;-67
2022/03/21 04:55:24;;;;;;;15.05;10.98;;;-2.40;99.90;;;;;;7381800;19;20388;-67
2022/03/21 04:57:50;;;;;;;15.20;11.00;;;-2.40;99.90;;;;;;7381098;19;20340;-67
2022/03/21 05:00:16;;;;;;;17.88;11.90;;;-2.40;99.90;;;;;;7379141;19;20337;-67
2022/03/21 05:02:41;;;;;;;16.98;11.60;;;-2.50;99.90;;;;;;7382347;19;20867;-67
2022/03/21 05:05:10;;;;;;;14.70;11.10;;;-2.50;99.90;;;;;;7383465;19;20332;-67
2022/03/21 05:07:40;;;;;;;16.38;11.48;;;-2.60;99.90;;;;;;7381847;19;20349;-66
2022/03/21 05:10:06;;;;;;;15.65;11.63;;;-2.60;99.90;;;;;;7388670;19;20861;-66
2022/03/21 05:12:32;;;;;;;16.73;11.73;;;-2.60;99.90;;;;;;7383669;19;20353;-67
2022/03/21 05:14:58;;;;;;;18.23;10.70;;;-2.60;99.90;;;;;;7383184;19;20920;-66
2022/03/21 05:17:27;;;;;;;13.77;11.20;;;-2.60;99.90;;;;;;7386950;19;20341;-67
2022/03/21 05:19:52;;;;;;;14.98;10.57;;;-2.50;99.90;;;;;;7378476;19;20731;-67
2022/03/21 05:22:18;;;;;;;15.97;10.73;;;-2.50;99.90;;;;;;7381206;19;20416;-69
2022/03/21 05:35:55;;;;;;;12.55;10.40;;;-2.40;99.90;;;;;;7383571;19;20332;-68
2022/03/21 05:38:30;;;;;;;18.08;11.50;;;-2.30;99.90;;;;;;7373310;19;20317;-69
2022/03/21 05:40:59;;;;;;;16.45;11.30;;;-2.30;99.90;;;;;;7375055;19;20750;-69
2022/03/21 05:43:27;;;;;;;14.85;10.25;;;-2.40;99.90;;;;;;7379110;19;21270;-68
2022/03/21 05:45:54;;;;;;;14.10;10.63;;;-2.40;99.90;;;;;;7381716;19;20309;-69
2022/03/21 05:51:04;;;;;;;12.82;10.32;;;-2.50;99.90;;;;;;7283866;19;2004388;-69
2022/03/21 05:53:30;;;;;;;14.52;11.18;;;-2.50;99.90;;;;;;7382853;19;20333;-68
2022/03/21 05:55:58;;;;;;;18.88;11.82;;;-2.40;99.90;;;;;;7382399;19;20444;-69
2022/03/21 05:58:24;;;;;;;18.15;11.23;;;-2.40;99.90;;;;;;7385133;19;20308;-69
2022/03/21 06:00:50;;;;;;;19.43;12.43;;;-2.40;99.90;;;;;;7380585;19;20348;-69
2022/03/21 06:03:15;;;;;;;14.97;10.97;;;-2.30;99.90;;;;;;7382005;19;20311;-69
2022/03/21 06:05:41;;;;;;;14.63;10.65;;;-2.10;99.90;;;;;;7386729;19;20849;-68
2022/03/21 06:08:08;;;;;;;14.63;10.97;;;-2.00;99.90;;;;;;7383767;19;20348;-69
2022/03/21 06:10:36;;;;;;;15.95;11.80;;;-1.90;99.90;;;;;;7387813;19;20397;-68
2022/03/21 06:13:05;;;;;;;18.83;12.75;;;-1.90;99.90;;;;;;7383235;19;20372;-69
2022/03/21 06:15:31;;;;;;;19.10;13.45;;;-1.80;99.90;;;;;;7382423;19;20428;-68
2022/03/21 06:17:59;;;;;;;17.73;13.60;;;-1.70;99.90;;;;;;7382608;19;20857;-68
2022/03/21 06:20:25;;;;;;;16.38;12.30;;;-1.60;99.90;;;;;;7381806;19;20328;-68
2022/03/21 06:22:50;;;;;;;16.17;12.35;;;-1.50;99.90;;;;;;7379593;19;20369;-68
2022/03/21 06:25:16;;;;;;;18.83;13.30;;;-1.40;99.90;;;;;;7380163;19;20338;-68
2022/03/21 06:27:42;;;;;;;19.00;12.67;;;-1.30;99.90;;;;;;7380701;19;20316;-68
2022/03/21 06:30:08;;;;;;;20.67;12.55;;;-1.10;99.90;;;;;;7378766;19;20340;-68
2022/03/21 06:32:35;;;;;;;13.30;10.40;;;-1.00;99.90;;;;;;7363981;19;20365;-68
2022/03/21 06:35:01;;;;;;;15.10;11.73;;;-0.90;99.90;;;;;;7384195;19;20339;-68
2022/03/21 06:37:27;;;;;;;23.70;12.53;;;-0.90;99.90;;;;;;7384249;19;20626;-68
2022/03/21 06:39:53;;;;;;;16.87;11.27;;;-0.70;99.90;;;;;;7383470;19;20333;-68
2022/03/21 06:42:21;;;;;;;19.03;10.67;;;-0.60;99.90;;;;;;7381820;19;21111;-68
2022/03/21 06:44:50;;;;;;;12.93;10.47;;;-0.50;99.90;;;;;;7374821;19;20431;-68
2022/03/21 06:47:16;;;;;;;13.20;10.93;;;-0.40;99.90;;;;;;7383534;19;20311;-69
2022/03/21 06:49:42;;;;;;;18.45;10.82;;;-0.30;99.90;;;;;;7383979;19;20313;-69
2022/03/21 06:52:08;;;;;;;17.27;10.57;;;-0.10;99.90;;;;;;7386558;19;20315;-68
2022/03/21 06:54:34;;;;;;;16.63;10.85;;;0.00;99.90;;;;;;7384397;19;20305;-68
2022/03/21 06:57:00;;;;;;;17.40;11.27;;;0.20;99.90;;;;;;7380685;19;21420;-70
2022/03/21 06:59:26;;;;;;;18.03;11.50;;;0.40;99.90;;;;;;7382441;19;20340;-69
2022/03/21 07:01:52;;;;;;;17.23;11.82;;;0.50;99.90;;;;;;7379880;19;20373;-68
2022/03/21 07:04:17;;;;;;;15.32;10.52;;;0.70;99.90;;;;;;7381338;19;20312;-70
2022/03/21 07:06:43;;;;;;;16.13;10.48;;;0.90;99.90;;;;;;7381389;19;20342;-71
2022/03/21 07:09:08;;;;;;;13.43;10.17;;;1.00;99.90;;;;;;7382901;19;20783;-70
2022/03/21 07:11:35;;;;;;;14.57;10.02;;;1.20;99.90;;;;;;7377353;19;20313;-68
2022/03/21 07:14:04;;;;;;;16.20;10.80;;;1.30;99.90;;;;;;7380443;19;20321;-68
2022/03/21 07:16:30;;;;;;;12.87;9.30;;;1.50;99.90;;;;;;7382176;19;20296;-68
2022/03/21 07:18:55;;;;;;;13.33;9.90;;;1.70;99.90;;;;;;7382212;19;20345;-69
2022/03/21 07:21:21;;;;;;;16.38;11.02;;;1.90;99.90;;;;;;7383818;19;20331;-68
2022/03/21 07:23:47;;;;;;;17.03;11.27;;;2.00;99.90;;;;;;7378604;19;20373;-68
2022/03/21 07:26:13;;;;;;;15.77;10.68;;;2.20;99.90;;;;;;7378052;19;20316;-68
2022/03/21 07:28:39;;;;;;;17.27;11.38;;;2.30;99.90;;;;;;7380481;19;20329;-68
2022/03/21 07:31:09;;;;;;;15.23;10.60;;;2.50;99.90;;;;;;7380647;19;20316;-68
2022/03/21 07:33:38;;;;;;;14.65;11.13;;;2.60;99.90;;;;;;7378979;19;20345;-68
2022/03/21 07:36:04;;;;;;;16.27;11.70;;;2.80;99.90;;;;;;7381547;19;20325;-68
2022/03/21 07:38:30;;;;;;;18.15;11.30;;;2.90;99.90;;;;;;7381559;19;20336;-68
2022/03/21 07:40:56;;;;;;;17.17;11.30;;;3.10;99.90;;;;;;7383546;19;20958;-69
2022/03/21 07:43:22;;;;;;;18.83;11.05;;;3.20;99.90;;;;;;7382512;19;20308;-68
2022/03/21 07:48:33;;;;;;;14.20;10.23;;;3.40;99.90;;;;;;7379389;19;20320;-68
2022/03/21 07:50:58;;;;;;;13.50;9.67;;;3.60;99.90;;;;;;7379595;19;20849;-68
2022/03/21 07:53:24;;;;;;;13.88;9.65;;;3.70;99.90;;;;;;7385219;19;20361;-68
2022/03/21 07:55:50;;;;;;;14.75;9.70;;;3.80;99.90;;;;;;7370411;19;20349;-68
2022/03/21 07:58:15;;;;;;;15.93;10.05;;;3.90;99.70;;;;;;7377907;19;20968;-68
2022/03/21 08:00:41;;;;;;;13.33;9.37;;;4.00;98.70;;;;;;7378845;19;20690;-68
2022/03/21 08:03:14;;;;;;;15.27;9.98;;;4.10;98.80;;;;;;7371977;19;20309;-68
2022/03/21 08:05:40;;;;;;;13.67;10.00;;;4.20;99.10;;;;;;7380278;19;20370;-69
2022/03/21 08:08:07;;;;;;;13.75;10.18;;;4.40;98.90;;;;;;7381420;19;20328;-68
2022/03/21 08:10:33;;;;;;;13.50;9.20;;;4.50;98.90;;;;;;7381032;19;20356;-68
2022/03/21 08:12:59;;;;;;;12.73;9.30;;;4.70;98.50;;;;;;7375960;19;20857;-68
2022/03/21 08:15:26;;;;;;;14.60;8.83;;;4.80;97.70;;;;;;7382079;19;20362;-68
2022/03/21 08:17:51;;;;;;;12.95;9.02;;;5.00;96.70;;;;;;7378229;19;20350;-68
2022/03/21 08:20:18;;;;;;;14.73;9.00;;;5.10;96.00;;;;;;7380722;19;20662;-69
2022/03/21 08:22:44;;;;;;;13.30;9.23;;;5.20;94.30;;;;;;7384081;19;20316;-68
2022/03/21 08:25:10;;;;;;;13.90;9.15;;;5.30;94.40;;;;;;7385035;19;20362;-68
2022/03/21 08:27:36;;;;;;;9.75;7.90;;;5.40;93.50;;;;;;7387676;19;20868;-68
2022/03/21 08:30:02;;;;;;;13.15;8.57;;;5.50;93.60;;;;;;7387935;19;20315;-68
2022/03/21 08:32:27;;;;;;;16.20;9.67;;;5.60;93.50;;;;;;7384473;19;20344;-68
2022/03/21 08:34:53;;;;;;;12.33;8.73;;;5.70;92.80;;;;;;7389148;19;20312;-69
2022/03/21 08:37:21;;;;;;;9.82;8.13;;;5.80;92.60;;;;;;7388170;19;20317;-68
2022/03/21 08:39:46;;;;;;;10.90;8.57;;;5.90;91.90;;;;;;7387891;19;20313;-69
2022/03/21 08:42:12;;;;;;;12.52;8.38;;;5.90;90.80;;;;;;7384869;19;20317;-68
2022/03/21 08:44:39;;;;;;;11.00;7.73;;;6.00;90.80;;;;;;7385692;19;20324;-69
2022/03/21 08:47:05;;;;;;;13.07;8.25;;;6.10;89.50;;;;;;7388168;19;20343;-69
2022/03/21 08:49:36;;;;;;;13.32;9.38;;;6.10;89.00;;;;;;7382624;19;20320;-69
2022/03/21 08:52:03;;;;;;;11.50;8.18;;;6.20;88.50;;;;;;7384690;19;20320;-69
2022/03/21 08:54:29;;;;;;;11.45;7.90;;;6.30;89.10;;;;;;7385200;19;20337;-69
2022/03/21 08:56:55;;;;;;;12.18;8.60;;;6.40;88.40;;;;;;7388495;19;20315;-69
2022/03/21 08:59:21;;;;;;;11.52;8.30;;;6.60;86.90;;;;;;7386072;19;20757;-68
2022/03/21 09:01:47;;;;;;;10.15;8.52;;;6.70;85.80;;;;;;7382458;19;20317;-69
2022/03/21 09:04:12;;;;;;;10.95;7.28;;;6.80;86.40;;;;;;7385845;19;20896;-69
2022/03/21 09:06:38;;;;;;;10.93;8.20;;;6.90;82.20;;;;;;7385697;19;20449;-69
2022/03/21 09:09:04;;;;;;;10.13;7.43;;;6.90;81.90;;;;;;7386239;19;20336;-70
2022/03/21 09:11:30;;;;;;;9.75;6.45;;;7.10;81.40;;;;;;7389158;19;20301;-70
2022/03/21 09:13:55;;;;;;;6.80;6.10;;;7.20;77.60;;;;;;7381604;19;20316;-69
2022/03/21 09:16:21;;;;;;;8.13;6.05;;;7.30;71.60;;;;;;7384883;19;20289;-69
2022/03/21 09:18:47;;;;;;;5.97;5.37;;;7.40;71.70;;;;;;7384021;19;20824;-69
2022/03/21 09:21:13;;;;;;;7.32;6.45;;;7.50;69.60;;;;;;7385346;19;20356;-69
2022/03/21 09:23:38;;;;;;;9.13;5.80;;;7.60;68.70;;;;;;7383645;19;20330;-69
2022/03/21 09:26:04;;;;;;;7.90;5.60;;;7.70;67.50;;;;;;7384929;19;20333;-69
2022/03/21 09:28:31;;;;;;;7.95;6.00;;;7.80;64.60;;;;;;7385182;19;20324;-70
2022/03/21 09:30:57;;;;;;;10.25;6.55;;;7.90;66.50;;;;;;7388711;19;20402;-70
2022/03/21 09:33:23;;;;;;;8.38;6.47;;;8.10;66.70;;;;;;7386367;19;20336;-70
2022/03/21 09:35:49;;;;;;;9.30;7.00;;;8.30;66.70;;;;;;7388035;19;20676;-70
2022/03/21 09:38:15;;;;;;;8.73;6.37;;;8.40;63.50;;;;;;7385516;19;20877;-69
2022/03/21 09:40:42;;;;;;;9.20;6.60;;;8.50;65.50;;;;;;7367574;19;20312;-70
2022/03/21 09:43:11;;;;;;;8.80;6.35;;;8.60;63.70;;;;;;7384556;19;20809;-70
2022/03/21 09:45:37;;;;;;;7.47;6.35;;;8.60;62.90;;;;;;7364742;19;20392;-69
2022/03/21 09:48:08;;;;;;;7.32;6.25;;;8.80;63.00;;;;;;7383896;19;20853;-69
2022/03/21 09:50:35;;;;;;;6.88;5.72;;;8.90;62.50;;;;;;7386065;19;20451;-69
2022/03/21 09:53:05;;;;;;;6.95;6.00;;;9.00;62.00;;;;;;7384145;19;21204;-70
2022/03/21 09:55:30;;;;;;;7.25;6.32;;;9.20;62.10;;;;;;7387999;19;20439;-69
2022/03/21 09:57:56;;;;;;;8.45;6.40;;;9.30;60.40;;;;;;7382442;19;20400;-70
2022/03/21 10:00:22;;;;;;;9.03;6.10;;;9.40;58.80;;;;;;7385450;19;20304;-70
2022/03/21 10:02:48;;;;;;;8.25;6.20;;;9.50;57.70;;;;;;7380384;19;20360;-69
2022/03/21 10:05:36;;;;;;;9.02;6.20;;;9.50;56.80;;;;;;7385135;19;20413;-70
2022/03/21 10:08:22;;;;;;;6.60;5.25;;;9.70;58.20;;;;;;7386654;19;20398;-70
2022/03/21 10:11:03;;;;;;;6.82;5.25;;;9.90;57.50;;;;;;7384807;19;20346;-70
2022/03/21 10:13:33;;;;;;;7.28;5.82;;;10.00;56.70;;;;;;7380573;19;20338;-70
2022/03/21 10:16:08;;;;;;;7.23;5.07;;;10.30;57.40;;;;;;7359257;19;20352;-70
2022/03/21 10:18:34;;;;;;;7.75;5.78;;;10.60;55.90;;;;;;7383980;19;20340;-70
2022/03/21 10:21:13;;;;;;;7.50;5.53;;;10.80;53.80;;;;;;7381614;19;20345;-71
2022/03/21 10:23:39;;;;;;;7.88;5.22;;;10.80;51.50;;;;;;7382794;19;20340;-70
2022/03/21 10:26:25;;;;;;;7.32;5.30;;;10.90;51.30;;;;;;7383268;19;20319;-70
2022/03/21 10:28:52;;;;;;;6.38;4.97;;;11.10;51.70;;;;;;7280293;19;2004838;-71
2022/03/21 10:31:46;;;;;;;8.45;5.32;;;11.40;50.90;;;;;;7384346;19;20316;-70
2022/03/21 10:34:16;;;;;;;7.80;5.55;;;11.20;48.20;;;;;;7277965;19;2004525;-69
2022/03/21 10:37:08;;;;;;;7.68;5.30;;;11.60;50.30;;;;;;7380435;19;20324;-72
2022/03/21 10:39:41;;;;;;;5.60;5.00;;;11.90;48.80;;;;;;7384825;19;20313;-70
2022/03/21 10:42:09;;;;;;;6.70;4.93;;;12.20;47.60;;;;;;7378925;19;20329;-70
2022/03/21 10:44:36;;;;;;;6.35;4.75;;;12.30;46.60;;;;;;7384012;19;20746;-70
2022/03/21 10:47:03;;;;;;;6.40;4.88;;;12.40;46.10;;;;;;7379994;19;20452;-70
2022/03/21 10:49:38;;;;;;;5.03;4.53;;;12.60;44.60;;;;;;7385362;19;20328;-71
2022/03/21 10:52:05;;;;;;;9.20;5.70;;;12.90;44.70;;;;;;7381934;19;20372;-71
2022/03/21 10:54:50;;;;;;;5.70;5.10;;;13.20;44.90;;;;;;7379247;19;20345;-71
2022/03/21 10:57:28;;;;;;;5.90;4.75;;;13.40;43.80;;;;;;7278989;19;2004542;-71
2022/03/21 11:00:20;;;;;;;7.78;5.03;;;13.50;42.70;;;;;;7385074;19;20328;-71
2022/03/21 11:02:51;;;;;;;8.32;4.47;;;13.80;42.80;;;;;;7277947;19;2004659;-71
2022/03/21 11:05:17;;;;;;;5.43;4.50;;;14.20;43.20;;;;;;7381627;19;20420;-72
2022/03/21 11:07:46;;;;;;;5.88;4.13;;;14.60;42.90;;;;;;7377815;19;20344;-72
2022/03/21 11:10:12;;;;;;;5.60;4.45;;;14.80;42.10;;;;;;7384904;19;20325;-71
2022/03/21 11:12:38;;;;;;;6.15;4.25;;;14.80;40.70;;;;;;7379762;19;20364;-71
2022/03/21 11:15:05;;;;;;;8.52;4.95;;;15.10;41.20;;;;;;7379122;19;20324;-70
2022/03/21 11:17:32;;;;;;;6.97;4.55;;;15.20;40.00;;;;;;7379502;19;20404;-70
2022/03/21 11:19:58;;;;;;;5.18;4.30;;;15.30;39.20;;;;;;7377031;19;20336;-70
2022/03/21 11:22:24;;;;;;;4.90;4.00;;;15.50;38.50;;;;;;7374590;19;20332;-71
2022/03/21 11:24:49;;;;;;;6.32;3.95;;;15.80;37.50;;;;;;7383797;19;20329;-70
2022/03/21 11:27:42;;;;;;;5.32;4.03;;;16.00;37.50;;;;;;7369323;19;20807;-71
2022/03/21 11:30:21;;;;;;;5.28;4.25;;;16.20;37.60;;;;;;7382556;19;20313;-71
2022/03/21 11:33:02;;;;;;;4.77;4.27;;;16.20;36.20;;;;;;7276989;19;2004514;-71
2022/03/21 11:35:28;;;;;;;7.53;5.68;;;15.90;36.20;;;;;;7280228;19;2004521;-71
2022/03/21 11:38:24;;;;;;;8.18;5.57;;;16.20;37.20;;;;;;7381045;19;20321;-71
2022/03/21 11:40:49;;;;;;;5.45;4.18;;;16.50;36.20;;;;;;7280354;19;2004513;-71
2022/03/21 11:43:18;;;;;;;4.35;3.90;;;16.30;33.70;;;;;;7378062;19;20327;-71
2022/03/21 11:45:44;;;;;;;4.93;4.43;;;16.40;35.30;;;;;;7382759;19;20416;-71
2022/03/21 11:48:19;;;;;;;4.68;3.85;;;16.70;36.20;;;;;;7378516;19;20308;-72
2022/03/21 11:50:48;;;;;;;5.85;4.10;;;16.90;34.50;;;;;;7378644;19;20861;-72
2022/03/21 11:53:14;;;;;;;6.57;4.18;;;17.30;35.10;;;;;;7379121;19;20316;-71
2022/03/21 11:55:41;;;;;;;3.83;3.53;;;17.30;33.40;;;;;;7382701;19;20335;-71
2022/03/21 11:58:22;;;;;;;4.75;3.97;;;17.60;33.50;;;;;;7379480;19;20313;-72
2022/03/21 12:01:06;;;;;;;6.45;3.38;;;17.70;32.00;;;;;;7378865;19;20317;-71
2022/03/21 12:03:31;;;;;;;5.35;3.92;;;18.30;33.00;;;;;;7380875;19;20415;-71
2022/03/21 12:05:57;;;;;;;4.53;3.73;;;17.50;30.20;;;;;;7380131;19;20372;-72
2022/03/21 12:08:33;;;;;;;5.10;3.78;;;17.30;33.50;;;;;;7380754;19;20744;-72
2022/03/21 12:10:59;;;;;;;4.57;3.85;;;17.40;33.00;;;;;;7379843;19;20651;-72
2022/03/21 12:13:25;;;;;;;4.30;3.45;;;17.50;31.40;;;;;;7375945;19;20332;-72
2022/03/21 12:15:51;;;;;;;5.23;3.77;;;17.30;30.70;;;;;;7374470;19;20337;-72
2022/03/21 12:18:16;;;;;;;4.85;3.80;;;17.30;31.70;;;;;;7380192;19;21036;-72
2022/03/21 12:20:46;;;;;;;3.67;3.25;;;17.60;32.60;;;;;;7379952;19;20315;-72
2022/03/21 12:23:21;;;;;;;4.40;3.60;;;18.50;33.60;;;;;;7377907;19;20297;-72
2022/03/21 12:25:51;;;;;;;4.65;3.50;;;18.70;30.80;;;;;;7381340;19;20324;-72
2022/03/21 12:28:22;;;;;;;3.73;3.30;;;18.70;29.70;;;;;;7379176;19;20331;-72
2022/03/21 12:30:50;;;;;;;3.92;3.53;;;18.80;30.90;;;;;;7377135;19;20325;-72
2022/03/21 12:33:16;;;;;;;5.07;3.50;;;19.00;31.00;;;;;;7376461;19;20339;-72
2022/03/21 12:35:42;;;;;;;4.20;3.80;;;18.70;30.00;;;;;;7383770;19;20320;-72
2022/03/21 12:38:21;;;;;;;5.43;3.90;;;19.20;31.00;;;;;;7380857;19;20325;-72
2022/03/21 12:40:47;;;;;;;5.22;3.40;;;19.70;31.90;;;;;;7384106;19;20848;-72
2022/03/21 12:43:32;;;;;;;5.30;3.95;;;19.60;30.20;;;;;;7380893;19;20342;-72
2022/03/21 12:46:07;;;;;;;4.40;4.00;;;19.60;29.90;;;;;;7277228;19;2004799;-72
2022/03/21 12:48:34;;;;;;;5.97;4.03;;;19.70;30.10;;;;;;7377020;19;20679;-72
2022/03/21 12:51:00;;;;;;;13.02;4.45;;;20.20;30.50;;;;;;7375329;19;20329;-72
2022/03/21 12:53:39;;;;;;;7.57;4.22;;;19.70;27.90;;;;;;7376395;19;20871;-72
2022/03/21 12:56:08;;;;;;;4.63;3.70;;;19.80;28.60;;;;;;7377122;19;20342;-72
2022/03/21 12:58:34;;;;;;;4.55;4.15;;;19.80;29.10;;;;;;7377531;19;20869;-73
2022/03/21 13:01:01;;;;;;;4.15;3.72;;;19.80;29.50;;;;;;7380187;19;20320;-73
2022/03/21 13:03:27;;;;;;;5.10;3.95;;;19.50;28.50;;;;;;7376301;19;20352;-72